createdAt,value
2018-08-03T06:04:21.208Z,97896.83
2018-08-03T06:06:49.760Z,97898.36
2018-08-03T06:09:18.278Z,97892.18
2018-08-03T06:11:46.780Z,97898.78
2018-08-03T06:14:15.306Z,97901.15
2018-08-03T06:16:43.832Z,97901.22
2018-08-03T06:19:12.354Z,97897.73
2018-08-03T06:21:40.853Z,97899.53
2018-08-03T06:24:09.405Z,97898.37
2018-08-03T06:26:37.978Z,97906.16
2018-08-03T06:29:06.676Z,97902.52
2018-08-03T06:31:35.353Z,97906.91
2018-08-03T06:34:03.878Z,97903.38
2018-08-03T06:36:32.424Z,97904.23
2018-08-03T06:39:01.040Z,97908.12
2018-08-03T06:41:29.559Z,97908.66
2018-08-03T06:43:58.955Z,97908.78
2018-08-03T06:46:27.436Z,97906.27
2018-08-03T06:48:55.931Z,97902.06
2018-08-03T06:51:25.008Z,97906.04
2018-08-03T06:53:54.148Z,97903.99
2018-08-03T06:56:22.705Z,97908.85
2018-08-03T06:58:51.196Z,97906.19
2018-08-03T07:01:19.695Z,97904.26
2018-08-03T07:03:48.212Z,97908.23
2018-08-03T07:06:16.684Z,97904.05
2018-08-03T07:08:45.193Z,97903.94
2018-08-03T07:11:13.699Z,97892.63
2018-08-03T07:13:42.234Z,97891.34
2018-08-03T07:16:10.796Z,97892.79
2018-08-03T07:18:39.296Z,97892.50
2018-08-03T07:21:07.800Z,97898.98
2018-08-03T07:23:36.343Z,97898.59
2018-08-03T07:26:04.834Z,97886.83
2018-08-03T07:28:33.309Z,97895.98
2018-08-03T07:31:01.864Z,97896.03
2018-08-03T07:33:30.409Z,97894.36
2018-08-03T07:35:59.155Z,97891.84
2018-08-03T07:38:27.875Z,97895.34
2018-08-03T07:40:56.737Z,97896.25
2018-08-03T07:43:25.394Z,97892.00
2018-08-03T07:45:53.903Z,97894.67
2018-08-03T07:48:22.400Z,97896.84
2018-08-03T07:50:50.936Z,97894.71
2018-08-03T07:53:19.549Z,97738.63
2018-08-03T07:55:48.057Z,97892.66
2018-08-03T07:58:16.532Z,97891.84
2018-08-03T08:00:45.017Z,97895.24
2018-08-03T08:03:13.607Z,97896.53
2018-08-03T08:05:42.061Z,97895.14
2018-08-03T08:08:10.636Z,97883.67
2018-08-03T08:10:39.260Z,97885.73
2018-08-03T08:13:07.749Z,97887.16
2018-08-03T08:15:36.330Z,97882.03
2018-08-03T08:18:04.759Z,97886.34
2018-08-03T08:20:33.311Z,97882.09
2018-08-03T08:23:01.817Z,97882.13
2018-08-03T08:25:30.368Z,97879.58
2018-08-03T08:27:58.987Z,97880.40
2018-08-03T08:30:27.511Z,97880.30
2018-08-03T08:32:55.981Z,97882.02
2018-08-03T08:35:24.460Z,97879.47
2018-08-03T08:37:52.962Z,97879.49
2018-08-03T08:40:21.472Z,97874.31
2018-08-03T08:42:51.011Z,97874.39
2018-08-03T08:45:19.535Z,97872.58
2018-08-03T08:47:48.077Z,97871.72
2018-08-03T08:50:16.564Z,97868.26
2018-08-03T08:52:45.659Z,97865.23
2018-08-03T08:55:14.158Z,97867.98
2018-08-03T08:57:42.896Z,97871.33
2018-08-03T09:00:17.271Z,97882.48
2018-08-03T09:02:46.058Z,97871.33
2018-08-03T09:05:14.677Z,97867.91
2018-08-03T09:07:43.397Z,97876.20
2018-08-03T09:10:12.033Z,97867.58
2018-08-03T09:12:40.730Z,97870.17
2018-08-03T09:15:09.376Z,97872.36
2018-08-03T09:17:55.573Z,97865.88
2018-08-03T09:20:24.024Z,97872.38
2018-08-03T09:22:52.527Z,97869.31
2018-08-03T09:25:20.976Z,97869.73
2018-08-03T09:27:49.439Z,97873.59
2018-08-03T09:30:17.892Z,97870.12
2018-08-03T09:32:46.376Z,97871.37
2018-08-03T09:35:15.123Z,97860.22
2018-08-03T09:37:43.771Z,97870.58
2018-08-03T09:40:12.633Z,97861.55
2018-08-03T09:42:41.320Z,97855.96
2018-08-03T09:45:10.108Z,97862.86
2018-08-03T09:47:38.592Z,97857.22
2018-08-03T09:50:07.043Z,97858.11
2018-08-03T09:52:35.491Z,97856.89
2018-08-03T09:55:03.976Z,97849.16
2018-08-03T09:57:32.476Z,97850.41
2018-08-03T10:00:00.929Z,97839.66
2018-08-03T10:02:29.393Z,97837.06
2018-08-03T10:04:57.868Z,97833.69
2018-08-03T10:07:26.407Z,97834.06
2018-08-03T10:09:54.844Z,97823.31
2018-08-03T10:12:23.339Z,97831.95
2018-08-03T10:14:51.792Z,97834.96
2018-08-03T10:17:20.261Z,97831.09
2018-08-03T10:19:48.724Z,97819.92
2018-08-03T10:22:17.235Z,97825.17
2018-08-03T10:24:45.703Z,97820.03
2018-08-03T10:27:14.172Z,97836.41
2018-08-03T10:29:42.676Z,97823.09
2018-08-03T10:32:11.120Z,97821.78
2018-08-03T10:34:39.680Z,97821.34
2018-08-03T10:37:08.164Z,97823.13
2018-08-03T10:39:36.659Z,97823.14
2018-08-03T10:42:05.163Z,97822.71
2018-08-03T10:44:33.676Z,97821.02
2018-08-03T10:47:02.210Z,97815.86
2018-08-03T10:49:30.737Z,97814.98
2018-08-03T10:51:59.971Z,97810.70
2018-08-03T10:54:28.935Z,97811.97
2018-08-03T10:56:57.407Z,97810.76
2018-08-03T10:59:25.975Z,97804.67
2018-08-03T11:01:54.458Z,97804.64
2018-08-03T11:04:22.957Z,97802.42
2018-08-03T11:06:51.565Z,97801.64
2018-08-03T11:09:20.000Z,97799.97
2018-08-03T11:11:48.684Z,97790.47
2018-08-03T11:14:17.216Z,97789.63
2018-08-03T11:16:45.711Z,97789.30
2018-08-03T11:19:14.255Z,97783.27
2018-08-03T11:21:42.759Z,97786.68
2018-08-03T11:24:11.302Z,97790.52
2018-08-03T11:26:39.784Z,97782.77
2018-08-03T11:29:08.300Z,97788.41
2018-08-03T11:31:36.840Z,97774.94
2018-08-03T11:34:05.331Z,97775.81
2018-08-03T11:36:33.867Z,97782.22
2018-08-03T11:39:02.348Z,97781.20
2018-08-03T11:41:30.822Z,97774.47
2018-08-03T11:43:59.352Z,97771.05
2018-08-03T11:46:27.832Z,97763.73
2018-08-03T11:48:56.305Z,97767.59
2018-08-03T11:51:24.758Z,97761.58
2018-08-03T11:53:53.297Z,97752.98
2018-08-03T11:56:21.749Z,97756.47
2018-08-03T11:58:50.215Z,97753.02
2018-08-03T12:01:18.699Z,97752.60
2018-08-03T12:03:47.164Z,97748.31
2018-08-03T12:06:15.608Z,97744.41
2018-08-03T12:08:44.108Z,97756.06
2018-08-03T12:11:12.572Z,97749.14
2018-08-03T12:13:41.071Z,97741.40
2018-08-03T12:16:09.571Z,97746.16
2018-08-03T12:18:38.081Z,97744.45
2018-08-03T12:21:06.582Z,97742.73
2018-08-03T12:23:35.150Z,97738.43
2018-08-03T12:26:03.643Z,97728.52
2018-08-03T12:28:32.112Z,97728.95
2018-08-03T12:31:00.683Z,97716.48
2018-08-03T12:33:29.155Z,97728.08
2018-08-03T12:35:57.604Z,97731.55
2018-08-03T12:38:26.044Z,97730.67
2018-08-03T12:40:54.504Z,97721.23
2018-08-03T12:43:23.018Z,97734.17
2018-08-03T12:45:51.491Z,97720.81
2018-08-03T12:48:20.405Z,97715.67
2018-08-03T12:50:49.231Z,97713.96
2018-08-03T12:53:17.836Z,97719.97
2018-08-03T12:55:46.300Z,97713.13
2018-08-03T12:58:14.751Z,97719.17
2018-08-03T13:00:43.291Z,97716.53
2018-08-03T13:03:11.784Z,97705.33
2018-08-03T13:05:40.259Z,97700.59
2018-08-03T13:08:09.170Z,97706.16
2018-08-03T13:10:37.495Z,97701.85
2018-08-03T13:13:05.980Z,97694.55
2018-08-03T13:15:34.487Z,97698.42
2018-08-03T13:18:03.096Z,97701.00
2018-08-03T13:20:31.590Z,97696.27
2018-08-03T13:23:01.889Z,97694.13
2018-08-03T13:25:30.405Z,97686.39
2018-08-03T13:27:58.881Z,97685.54
2018-08-03T13:30:27.388Z,97691.98
2018-08-03T13:32:56.461Z,97687.68
2018-08-03T13:35:25.016Z,97682.09
2018-08-03T13:37:53.603Z,97683.44
2018-08-03T13:40:22.123Z,97682.66
2018-08-03T13:42:50.652Z,97672.38
2018-08-03T13:45:19.524Z,97671.10
2018-08-03T13:47:48.300Z,97673.67
2018-08-03T13:50:17.108Z,97673.97
2018-08-03T13:52:46.489Z,97670.23
2018-08-03T13:55:15.356Z,97666.39
2018-08-03T13:57:43.922Z,97664.23
2018-08-03T14:00:13.340Z,97653.89
2018-08-03T14:02:42.260Z,97662.52
2018-08-03T14:05:12.548Z,97657.75
2018-08-03T14:07:41.029Z,97648.28
2018-08-03T14:10:10.304Z,97645.27
2018-08-03T14:12:38.803Z,97645.67
2018-08-03T14:15:08.059Z,97639.22
2018-08-03T14:17:36.675Z,97630.19
2018-08-03T14:20:06.542Z,97625.02
2018-08-03T14:22:35.072Z,97618.98
2018-08-03T14:25:03.946Z,97625.41
2018-08-03T14:27:32.534Z,97618.53
2018-08-03T14:30:01.441Z,97622.01
2018-08-03T14:32:30.249Z,97608.64
2018-08-03T14:34:59.118Z,97603.06
2018-08-03T14:37:27.860Z,97606.55
2018-08-03T14:39:56.494Z,97606.11
2018-08-03T14:42:24.991Z,97604.83
2018-08-03T14:44:53.509Z,97604.42
2018-08-03T14:47:21.969Z,97604.01
2018-08-03T14:49:50.928Z,97602.70
2018-08-03T14:52:19.421Z,97600.13
2018-08-03T14:54:47.888Z,97588.90
2018-08-03T14:57:16.598Z,97598.41
2018-08-03T14:59:45.302Z,97601.02
2018-08-03T15:02:13.968Z,97590.27
2018-08-03T15:04:42.813Z,97601.12
2018-08-03T15:07:11.542Z,97598.15
2018-08-03T15:09:40.148Z,97323.05
2018-08-03T15:12:08.784Z,97583.53
2018-08-03T15:14:37.451Z,97601.67
2018-08-03T15:17:06.307Z,97596.51
2018-08-03T15:19:35.534Z,97594.77
2018-08-03T15:22:04.000Z,97594.35
2018-08-03T15:24:32.503Z,97586.58
2018-08-03T15:27:00.968Z,97587.86
2018-08-03T15:29:29.465Z,97582.69
2018-08-03T15:31:57.973Z,97583.62
2018-08-03T15:34:26.453Z,97581.05
2018-08-03T15:36:54.933Z,97572.89
2018-08-03T15:39:23.404Z,97583.23
2018-08-03T15:41:51.859Z,97581.48
2018-08-03T15:44:20.328Z,97580.65
2018-08-03T15:46:48.820Z,97573.72
2018-08-03T15:49:17.364Z,97574.16
2018-08-03T15:51:45.848Z,97567.64
2018-08-03T15:54:14.311Z,97552.13
2018-08-03T15:56:42.778Z,97563.77
2018-08-03T15:59:11.271Z,97557.76
2018-08-03T16:01:39.732Z,97561.63
2018-08-03T16:04:08.193Z,97555.16
2018-08-03T16:06:36.712Z,97555.99
2018-08-03T16:09:08.112Z,97538.75
2018-08-03T16:11:36.599Z,97551.67
2018-08-03T16:14:05.087Z,97552.53
2018-08-03T16:16:33.573Z,97551.66
2018-08-03T16:19:02.053Z,97549.06
2018-08-03T16:21:30.564Z,97550.34
2018-08-03T16:23:59.044Z,97549.05
2018-08-03T16:26:27.524Z,97549.03
2018-08-03T16:28:56.025Z,97552.48
2018-08-03T16:31:24.484Z,97554.19
2018-08-03T16:33:52.952Z,97557.17
2018-08-03T16:36:21.424Z,97558.05
2018-08-03T16:38:49.932Z,97559.33
2018-08-03T16:41:18.400Z,97553.23
2018-08-03T16:43:46.871Z,97559.27
2018-08-03T16:46:15.368Z,97565.73
2018-08-03T16:48:43.837Z,97560.98
2018-08-03T16:51:12.297Z,97561.44
2018-08-03T16:53:40.759Z,97556.25
2018-08-03T16:56:09.248Z,97553.67
2018-08-03T16:58:37.703Z,97548.91
2018-08-03T17:01:06.175Z,97543.70
2018-08-03T17:03:34.658Z,97545.44
2018-08-03T17:06:03.151Z,97546.75
2018-08-03T17:08:31.636Z,97550.61
2018-08-03T17:11:00.139Z,97546.70
2018-08-03T17:13:28.644Z,97546.70
2018-08-03T17:15:57.107Z,97540.69
2018-08-03T17:18:25.612Z,97545.41
2018-08-03T17:20:54.107Z,97551.88
2018-08-03T17:23:22.569Z,97538.53
2018-08-03T17:25:51.055Z,97536.36
2018-08-03T17:28:19.499Z,97534.64
2018-08-03T17:30:47.963Z,97536.84
2018-08-03T17:33:16.439Z,97536.39
2018-08-03T17:35:44.887Z,97538.98
2018-08-03T17:38:13.361Z,97537.69
2018-08-03T17:40:41.825Z,97532.52
2018-08-03T17:43:10.305Z,97539.44
2018-08-03T17:45:38.796Z,97543.30
2018-08-03T17:48:07.546Z,97540.72
2018-08-03T17:50:36.035Z,97542.84
2018-08-03T17:53:04.552Z,97547.17
2018-08-03T17:55:33.079Z,97549.32
2018-08-03T17:58:01.545Z,97552.34
2018-08-03T18:00:30.039Z,97558.35
2018-08-03T18:02:58.559Z,97553.64
2018-08-03T18:05:27.033Z,97550.59
2018-08-03T18:07:55.509Z,97558.34
2018-08-03T18:10:24.001Z,97554.92
2018-08-03T18:12:52.469Z,97554.05
2018-08-03T18:15:20.935Z,97554.47
2018-08-03T18:17:50.063Z,97559.64
2018-08-03T18:20:18.539Z,97563.95
2018-08-03T18:22:47.005Z,97559.21
2018-08-03T18:25:15.491Z,97560.09
2018-08-03T18:27:43.961Z,97566.55
2018-08-03T18:30:12.586Z,97558.80
2018-08-03T18:32:41.067Z,97561.38
2018-08-03T18:35:09.536Z,97562.67
2018-08-03T18:37:38.266Z,97566.11
2018-08-03T18:40:08.889Z,97563.10
2018-08-03T18:42:37.382Z,97561.39
2018-08-03T18:45:06.487Z,97563.98
2018-08-03T18:47:34.973Z,97570.43
2018-08-03T18:50:03.817Z,97571.75
2018-08-03T18:52:32.288Z,97579.93
2018-08-03T18:55:00.776Z,97585.52
2018-08-03T18:57:29.266Z,97581.64
2018-08-03T18:59:57.752Z,97579.52
2018-08-03T19:02:26.205Z,97578.22
2018-08-03T19:04:54.667Z,97582.09
2018-08-03T19:07:23.133Z,97591.13
2018-08-03T19:09:51.645Z,97592.38
2018-08-03T19:12:20.107Z,97590.63
2018-08-03T19:14:48.576Z,97591.92
2018-08-03T19:17:17.059Z,97595.38
2018-08-03T19:19:45.523Z,97585.46
2018-08-03T19:22:14.579Z,97594.08
2018-08-03T19:24:43.120Z,97590.19
2018-08-03T19:27:11.593Z,97595.77
2018-08-03T19:29:40.061Z,97597.07
2018-08-03T19:32:08.542Z,97581.97
2018-08-03T19:34:37.017Z,97599.65
2018-08-03T19:37:05.821Z,97601.80
2018-08-03T19:39:34.304Z,97603.97
2018-08-03T19:42:02.793Z,97612.56
2018-08-03T19:44:31.251Z,97594.01
2018-08-03T19:46:59.725Z,97613.44
2018-08-03T19:49:28.220Z,97602.69
2018-08-03T19:51:56.704Z,97608.26
2018-08-03T19:54:25.162Z,97598.33
2018-08-03T19:56:53.638Z,97608.73
2018-08-03T19:59:22.119Z,97616.02
2018-08-03T20:01:50.600Z,97607.84
2018-08-03T20:04:19.093Z,97616.47
2018-08-03T20:06:47.600Z,97617.34
2018-08-03T20:09:16.044Z,97616.05
2018-08-03T20:11:44.508Z,97613.89
2018-08-03T20:14:12.959Z,97617.34
2018-08-03T20:16:41.431Z,97619.88
2018-08-03T20:19:09.934Z,97624.64
2018-08-03T20:21:38.405Z,97619.50
2018-08-03T20:24:07.117Z,97623.36
2018-08-03T20:26:35.583Z,97625.45
2018-08-03T20:29:04.044Z,97622.87
2018-08-03T20:31:32.508Z,97626.74
2018-08-03T20:34:00.974Z,97620.28
2018-08-03T20:36:29.473Z,97617.69
2018-08-03T20:38:58.103Z,97621.16
2018-08-03T20:41:26.577Z,97624.59
2018-08-03T20:43:55.069Z,97622.86
2018-08-03T20:46:23.727Z,97620.28
2018-08-03T20:48:52.190Z,97620.73
2018-08-03T20:51:20.697Z,97622.03
2018-08-03T20:53:49.148Z,97607.75
2018-08-03T20:56:17.627Z,97623.73
2018-08-03T20:58:46.093Z,97622.44
2018-08-03T21:01:14.608Z,97622.87
2018-08-03T21:03:43.194Z,97621.58
2018-08-03T21:06:11.688Z,97622.45
2018-08-03T21:08:40.148Z,97617.29
2018-08-03T21:11:08.629Z,97620.28
2018-08-03T21:13:37.136Z,97620.30
2018-08-03T21:16:05.635Z,97627.20
2018-08-03T21:18:34.300Z,97623.75
2018-08-03T21:21:03.389Z,97619.44
2018-08-03T21:23:31.866Z,97614.70
2018-08-03T21:26:00.339Z,97614.28
2018-08-03T21:28:28.805Z,97613.41
2018-08-03T21:30:57.252Z,97608.23
2018-08-03T21:33:25.708Z,97605.66
2018-08-03T21:35:54.172Z,97613.41
2018-08-03T21:38:22.711Z,97615.98
2018-08-03T21:40:51.225Z,97613.82
2018-08-03T21:43:19.662Z,97610.39
2018-08-03T21:45:48.100Z,97607.81
2018-08-03T21:48:16.554Z,97612.98
2018-08-03T21:50:45.015Z,97609.11
2018-08-03T21:53:13.471Z,97607.81
2018-08-03T21:55:41.956Z,97614.27
2018-08-03T21:58:10.463Z,97619.42
2018-08-03T22:00:38.913Z,97609.52
2018-08-03T22:03:07.383Z,97608.66
2018-08-03T22:05:35.827Z,97613.39
2018-08-03T22:08:04.299Z,97617.27
2018-08-03T22:10:32.792Z,97602.61
2018-08-03T22:13:01.286Z,97613.81
2018-08-03T22:15:29.744Z,97614.67
2018-08-03T22:17:58.240Z,97615.09
2018-08-03T22:20:26.703Z,97613.80
2018-08-03T22:22:55.156Z,97612.09
2018-08-03T22:25:23.612Z,97609.52
2018-08-03T22:27:52.064Z,97619.38
2018-08-03T22:30:20.516Z,97616.78
2018-08-03T22:32:48.983Z,97605.55
2018-08-03T22:35:17.446Z,97618.53
2018-08-03T22:37:45.887Z,97610.75
2018-08-03T22:40:14.387Z,97613.73
2018-08-03T22:42:42.868Z,97608.56
2018-08-03T22:45:11.352Z,97614.23
2018-08-03T22:47:39.840Z,97609.93
2018-08-03T22:50:08.317Z,97604.77
2018-08-03T22:52:36.773Z,97608.63
2018-08-03T22:55:05.344Z,97605.63
2018-08-03T22:57:33.798Z,97607.34
2018-08-03T23:00:02.380Z,97608.21
2018-08-03T23:02:30.819Z,97608.63
2018-08-03T23:04:59.967Z,97612.50
2018-08-03T23:07:28.411Z,97608.20
2018-08-03T23:09:56.883Z,97600.06
2018-08-03T23:12:25.333Z,97589.23
2018-08-03T23:14:53.788Z,97602.63
2018-08-03T23:17:22.260Z,97607.34
2018-08-03T23:19:50.732Z,97606.92
2018-08-03T23:22:19.192Z,97603.03
2018-08-03T23:24:47.643Z,97594.42
2018-08-03T23:27:16.113Z,97594.44
2018-08-03T23:29:44.555Z,97591.84
2018-08-03T23:32:13.019Z,97592.72
2018-08-03T23:34:41.501Z,97589.26
2018-08-03T23:37:09.981Z,97583.64
2018-08-03T23:39:38.453Z,97587.97
2018-08-03T23:42:07.822Z,97585.84
2018-08-03T23:44:36.504Z,97586.27
2018-08-03T23:47:05.151Z,97586.69
2018-08-03T23:49:33.587Z,97591.42
2018-08-03T23:52:02.043Z,97589.26
2018-08-03T23:54:30.496Z,97586.67
2018-08-03T23:56:58.943Z,97585.83
2018-08-03T23:59:27.391Z,97584.54
